createdAt,value
2023-01-28T00:00:57.731Z,6.85
2023-01-28T00:02:07.117Z,7.00
2023-01-28T00:03:11.860Z,7.93
2023-01-28T00:04:15.372Z,10.95
2023-01-28T00:05:18.928Z,7.32
2023-01-28T00:06:28.120Z,6.10
2023-01-28T00:07:31.680Z,8.20
2023-01-28T00:08:34.471Z,5.85
2023-01-28T00:09:39.375Z,8.18
2023-01-28T00:10:43.117Z,6.57
2023-01-28T00:11:53.172Z,7.03
2023-01-28T00:12:55.700Z,4.93
2023-01-28T00:13:59.799Z,5.82
2023-01-28T00:15:02.434Z,4.72
2023-01-28T00:16:07.525Z,4.15
2023-01-28T00:17:17.201Z,6.60
2023-01-28T00:18:21.978Z,4.63
2023-01-28T00:19:24.590Z,4.30
2023-01-28T00:20:28.044Z,6.82
2023-01-28T00:21:30.772Z,3.90
2023-01-28T00:22:41.628Z,5.63
2023-01-28T00:23:48.257Z,9.35
2023-01-28T00:24:51.711Z,12.55
2023-01-28T00:25:54.788Z,6.30
2023-01-28T00:26:58.229Z,3.55
2023-01-28T00:28:07.174Z,6.00
2023-01-28T00:29:10.650Z,4.65
2023-01-28T00:30:13.726Z,5.47
2023-01-28T00:31:18.176Z,6.03
2023-01-28T00:32:20.691Z,5.47
2023-01-28T00:33:32.182Z,5.45
2023-01-28T00:34:34.695Z,8.15
2023-01-28T00:35:38.180Z,4.70
2023-01-28T00:36:42.321Z,6.07
2023-01-28T00:37:47.383Z,7.15
2023-01-28T00:38:59.124Z,5.70
2023-01-28T00:40:02.572Z,6.43
2023-01-28T00:41:09.225Z,6.22
2023-01-28T00:42:19.130Z,9.43
2023-01-28T00:43:22.137Z,6.75
2023-01-28T00:44:32.176Z,4.95
2023-01-28T00:45:34.675Z,6.75
2023-01-28T00:46:38.208Z,6.00
2023-01-28T00:47:40.746Z,4.88
2023-01-28T00:48:45.977Z,6.18
2023-01-28T00:49:55.235Z,4.47
2023-01-28T00:50:58.887Z,7.47
2023-01-28T00:52:23.111Z,6.07
2023-01-28T00:53:25.655Z,5.38
2023-01-28T00:54:29.479Z,6.97
2023-01-28T00:55:38.153Z,6.82
2023-01-28T00:56:41.635Z,6.97
2023-01-28T00:57:44.156Z,6.13
2023-01-28T00:58:47.689Z,6.65
2023-01-28T00:59:50.235Z,5.80
2023-01-28T01:01:00.125Z,4.78
2023-01-28T01:02:12.680Z,4.15
2023-01-28T01:03:16.275Z,6.80
2023-01-28T01:04:33.132Z,6.22
2023-01-28T01:05:36.585Z,7.03
2023-01-28T01:06:49.140Z,5.22
2023-01-28T01:07:51.653Z,6.57
2023-01-28T01:08:55.152Z,4.95
2023-01-28T01:10:04.140Z,3.40
2023-01-28T01:11:08.109Z,3.83
2023-01-28T01:12:10.720Z,4.43
2023-01-28T01:13:14.148Z,5.35
2023-01-28T01:14:23.112Z,5.25
2023-01-28T01:15:26.714Z,6.10
2023-01-28T01:16:30.084Z,3.67
2023-01-28T01:17:33.781Z,4.28
2023-01-28T01:18:36.462Z,4.78
2023-01-28T01:19:48.136Z,5.78
2023-01-28T01:20:52.218Z,5.80
2023-01-28T01:21:56.566Z,5.38
2023-01-28T01:22:59.081Z,4.40
2023-01-28T01:24:02.536Z,3.53
2023-01-28T01:25:12.618Z,4.32
2023-01-28T01:26:16.691Z,7.30
2023-01-28T01:27:19.572Z,4.78
2023-01-28T01:28:23.379Z,7.45
2023-01-28T01:29:25.965Z,5.35
2023-01-28T01:30:36.221Z,8.05
2023-01-28T01:31:39.195Z,4.32
2023-01-28T01:32:42.677Z,4.35
2023-01-28T01:33:45.850Z,3.72
2023-01-28T01:34:50.796Z,4.18
2023-01-28T01:36:01.165Z,4.97
2023-01-28T01:37:06.421Z,4.35
2023-01-28T01:38:09.286Z,6.65
2023-01-28T01:39:13.831Z,6.13
2023-01-28T01:40:23.175Z,8.15
2023-01-28T01:41:31.059Z,5.65
2023-01-28T01:42:33.952Z,5.93
2023-01-28T01:43:51.207Z,7.00
2023-01-28T01:44:56.629Z,5.53
2023-01-28T01:46:08.181Z,6.35
2023-01-28T01:47:10.809Z,8.00
2023-01-28T01:48:18.686Z,7.63
2023-01-28T01:49:23.352Z,6.22
2023-01-28T01:50:31.352Z,5.80
2023-01-28T01:51:42.147Z,3.50
2023-01-28T01:53:01.178Z,4.10
2023-01-28T01:54:03.988Z,4.75
2023-01-28T01:55:11.342Z,3.97
2023-01-28T01:56:15.614Z,5.15
2023-01-28T01:57:23.398Z,5.78
2023-01-28T01:58:36.135Z,6.85
2023-01-28T01:59:40.082Z,4.82
2023-01-28T02:00:42.916Z,5.78
2023-01-28T02:01:46.987Z,5.65
2023-01-28T02:02:50.404Z,6.10
2023-01-28T02:04:04.142Z,5.40
2023-01-28T02:05:08.233Z,5.95
2023-01-28T02:06:13.062Z,5.97
2023-01-28T02:07:16.583Z,5.00
2023-01-28T02:08:23.299Z,6.63
2023-01-28T02:09:33.142Z,6.22
2023-01-28T02:10:36.705Z,5.32
2023-01-28T02:11:39.283Z,5.45
2023-01-28T02:12:45.209Z,5.82
2023-01-28T02:13:57.327Z,5.68
2023-01-28T02:15:02.570Z,5.95
2023-01-28T02:16:06.623Z,5.43
2023-01-28T02:17:09.258Z,6.05
2023-01-28T02:18:12.661Z,6.82
2023-01-28T02:19:23.172Z,5.97
2023-01-28T02:20:35.168Z,6.45
2023-01-28T02:21:52.030Z,4.30
2023-01-28T02:23:13.307Z,4.68
2023-01-28T02:24:26.246Z,5.72
2023-01-28T02:25:46.191Z,6.93
2023-01-28T02:26:55.832Z,6.78
2023-01-28T02:28:17.665Z,8.20
2023-01-28T02:29:24.697Z,5.57
2023-01-28T02:30:30.318Z,5.20
2023-01-28T02:31:43.286Z,5.13
2023-01-28T02:32:58.150Z,5.88
2023-01-28T02:34:08.725Z,6.35
2023-01-28T02:35:14.258Z,5.38
2023-01-28T02:36:20.716Z,7.03
2023-01-28T02:37:25.531Z,9.15
2023-01-28T02:38:37.124Z,8.60
2023-01-28T02:39:41.991Z,10.32
2023-01-28T02:41:07.873Z,9.15
2023-01-28T02:42:13.572Z,7.80
2023-01-28T02:43:23.206Z,6.57
2023-01-28T02:44:27.969Z,6.97
2023-01-28T02:45:47.702Z,6.68
2023-01-28T02:47:11.338Z,5.53
2023-01-28T02:48:13.928Z,5.35
2023-01-28T02:49:26.140Z,7.40
2023-01-28T02:50:34.339Z,5.53
2023-01-28T02:51:50.368Z,5.47
2023-01-28T02:53:30.197Z,6.03
2023-01-28T02:54:38.958Z,5.68
2023-01-28T02:55:44.665Z,6.13
2023-01-28T02:56:51.648Z,11.10
2023-01-28T02:57:59.348Z,7.65
2023-01-28T02:59:32.156Z,5.95
2023-01-28T03:00:41.940Z,7.47
2023-01-28T03:01:48.854Z,8.50
2023-01-28T03:02:54.602Z,9.73
2023-01-28T03:04:01.138Z,11.27
2023-01-28T03:05:13.656Z,10.25
2023-01-28T03:06:19.844Z,9.18
2023-01-28T03:07:24.131Z,8.38
2023-01-28T03:08:47.639Z,9.30
2023-01-28T03:09:52.480Z,5.30
2023-01-28T03:11:22.149Z,6.55
2023-01-28T03:12:43.953Z,9.15
2023-01-28T03:14:06.157Z,6.90
2023-01-28T03:15:29.989Z,8.40
2023-01-28T03:17:00.136Z,9.00
2023-01-28T03:18:29.138Z,7.93
2023-01-28T03:19:50.615Z,7.93
2023-01-28T03:21:16.616Z,9.50
2023-01-28T03:22:44.149Z,7.57
2023-01-28T03:24:07.934Z,11.32
2023-01-28T03:25:30.985Z,6.28
2023-01-28T03:26:54.752Z,6.90
2023-01-28T03:28:26.553Z,7.90
2023-01-28T03:29:49.997Z,13.02
2023-01-28T03:31:15.292Z,8.40
2023-01-28T03:32:38.204Z,7.72
2023-01-28T03:34:06.142Z,7.85
2023-01-28T03:35:28.973Z,6.85
2023-01-28T03:36:57.179Z,5.97
2023-01-28T03:38:00.993Z,7.22
2023-01-28T03:39:03.569Z,9.27
2023-01-28T03:40:08.187Z,8.35
2023-01-28T03:41:11.863Z,8.82
2023-01-28T03:42:25.152Z,8.13
2023-01-28T03:43:27.903Z,6.30
2023-01-28T03:44:49.076Z,8.10
2023-01-28T03:45:52.640Z,5.97
2023-01-28T03:46:55.293Z,9.63
2023-01-28T03:48:06.209Z,5.68
2023-01-28T03:49:08.778Z,6.45
2023-01-28T03:50:12.588Z,5.53
2023-01-28T03:51:16.594Z,7.00
2023-01-28T03:52:27.296Z,6.70
2023-01-28T03:53:43.168Z,5.85
2023-01-28T03:54:48.573Z,6.65
2023-01-28T03:55:58.145Z,7.10
2023-01-28T03:57:01.572Z,7.45
2023-01-28T03:58:05.816Z,5.50
2023-01-28T03:59:16.199Z,8.52
2023-01-28T04:00:22.011Z,7.28
2023-01-28T04:01:25.545Z,8.13
2023-01-28T04:02:28.999Z,7.15
2023-01-28T04:03:32.851Z,6.43
2023-01-28T04:04:43.194Z,9.18
2023-01-28T04:05:45.859Z,7.45
2023-01-28T04:06:49.283Z,8.07
2023-01-28T04:07:55.082Z,8.73
2023-01-28T04:09:06.185Z,7.55
2023-01-28T04:10:09.597Z,6.75
2023-01-28T04:11:16.704Z,7.28
2023-01-28T04:12:20.195Z,5.10
2023-01-28T04:13:23.246Z,9.32
2023-01-28T04:14:33.146Z,6.40
2023-01-28T04:15:45.184Z,6.70
2023-01-28T04:16:49.153Z,6.47
2023-01-28T04:17:51.742Z,7.93
2023-01-28T04:18:57.964Z,7.47
2023-01-28T04:20:00.475Z,7.78
2023-01-28T04:21:10.161Z,7.75
2023-01-28T04:22:19.173Z,5.97
2023-01-28T04:23:22.724Z,7.70
2023-01-28T04:24:25.367Z,6.47
2023-01-28T04:25:28.983Z,9.60
2023-01-28T04:26:31.511Z,7.03
2023-01-28T04:27:42.188Z,5.80
2023-01-28T04:28:44.715Z,7.22
2023-01-28T04:29:48.143Z,7.88
2023-01-28T04:30:50.770Z,8.50
2023-01-28T04:31:54.329Z,7.13
2023-01-28T04:33:03.181Z,7.80
2023-01-28T04:34:09.284Z,8.00
2023-01-28T04:35:11.813Z,10.32
2023-01-28T04:36:15.342Z,8.00
2023-01-28T04:37:18.823Z,9.85
2023-01-28T04:38:28.164Z,6.60
2023-01-28T04:39:31.584Z,6.78
2023-01-28T04:40:34.191Z,7.00
2023-01-28T04:41:37.747Z,9.77
2023-01-28T04:42:40.316Z,7.22
2023-01-28T04:43:50.189Z,7.97
2023-01-28T04:44:52.686Z,5.80
2023-01-28T04:45:56.156Z,8.95
2023-01-28T04:46:58.712Z,9.48
2023-01-28T04:48:02.198Z,5.75
2023-01-28T04:49:12.155Z,12.98
2023-01-28T04:50:16.127Z,15.63
2023-01-28T04:51:19.555Z,12.65
2023-01-28T04:52:28.195Z,8.30
2023-01-28T04:53:38.309Z,6.95
2023-01-28T04:54:40.811Z,6.55
2023-01-28T04:55:51.132Z,7.57
2023-01-28T04:56:53.729Z,13.05
2023-01-28T04:57:57.415Z,6.38
2023-01-28T04:58:59.957Z,7.85
2023-01-28T05:00:10.194Z,7.03
2023-01-28T05:01:19.151Z,8.45
2023-01-28T05:02:29.345Z,9.73
2023-01-28T05:03:31.942Z,9.13
2023-01-28T05:04:35.474Z,8.90
2023-01-28T05:05:39.282Z,13.20
2023-01-28T05:06:49.204Z,10.82
2023-01-28T05:07:52.533Z,11.50
2023-01-28T05:08:55.956Z,9.32
2023-01-28T05:09:58.423Z,9.40
2023-01-28T05:11:01.941Z,9.27
2023-01-28T05:12:11.158Z,12.35
2023-01-28T05:13:14.661Z,9.98
2023-01-28T05:14:17.265Z,10.73
2023-01-28T05:15:21.367Z,14.73
2023-01-28T05:16:23.878Z,17.02
2023-01-28T05:17:34.291Z,13.75
2023-01-28T05:18:36.821Z,16.80
2023-01-28T05:19:40.368Z,18.83
2023-01-28T05:20:44.159Z,13.63
2023-01-28T05:21:47.698Z,13.57
2023-01-28T05:22:57.147Z,14.40
2023-01-28T05:24:00.756Z,13.63
2023-01-28T05:25:04.646Z,8.40
2023-01-28T05:26:08.179Z,10.30
2023-01-28T05:27:17.783Z,10.27
2023-01-28T05:28:21.224Z,6.45
2023-01-28T05:29:23.699Z,8.30
2023-01-28T05:30:27.136Z,11.45
2023-01-28T05:31:29.717Z,18.45
2023-01-28T05:32:40.189Z,13.00
2023-01-28T05:33:42.703Z,15.85
2023-01-28T05:34:53.151Z,11.80
2023-01-28T05:35:57.869Z,11.00
2023-01-28T05:37:00.392Z,10.38
2023-01-28T05:38:04.085Z,9.63
2023-01-28T05:39:07.726Z,15.93
2023-01-28T05:40:18.501Z,21.40
2023-01-28T05:41:21.126Z,27.55
2023-01-28T05:42:24.542Z,21.48
2023-01-28T05:43:28.902Z,18.77
2023-01-28T05:44:39.228Z,19.30
2023-01-28T05:45:42.210Z,17.33
2023-01-28T05:46:46.757Z,18.92
2023-01-28T05:47:49.217Z,16.42
2023-01-28T05:48:59.182Z,15.45
2023-01-28T05:50:01.668Z,20.92
2023-01-28T05:51:06.581Z,21.98
2023-01-28T05:52:15.467Z,12.68
2023-01-28T05:53:39.145Z,12.68
2023-01-28T05:54:48.158Z,21.98
2023-01-28T05:55:51.893Z,20.48
2023-01-28T05:56:54.427Z,16.27
2023-01-28T05:57:57.904Z,16.45
2023-01-28T05:59:07.185Z,16.40
2023-01-28T06:00:11.181Z,14.55
2023-01-28T06:01:13.747Z,18.92
2023-01-28T06:02:17.189Z,18.20
2023-01-28T06:03:19.722Z,12.85
2023-01-28T06:04:30.202Z,11.70
2023-01-28T06:05:32.792Z,10.93
2023-01-28T06:06:37.574Z,13.35
2023-01-28T06:07:40.112Z,13.30
2023-01-28T06:08:43.669Z,13.70
2023-01-28T06:09:52.197Z,15.30
2023-01-28T06:10:55.718Z,15.60
2023-01-28T06:11:58.313Z,14.75
2023-01-28T06:13:02.264Z,10.77
2023-01-28T06:14:04.758Z,10.40
2023-01-28T06:15:15.176Z,10.93
2023-01-28T06:16:24.188Z,11.88
2023-01-28T06:17:27.725Z,27.00
2023-01-28T06:18:30.212Z,26.20
2023-01-28T06:19:33.641Z,15.45
2023-01-28T06:20:36.167Z,17.27
2023-01-28T06:21:47.202Z,13.23
2023-01-28T06:22:51.287Z,11.52
2023-01-28T06:23:54.842Z,11.27
2023-01-28T06:24:57.451Z,11.85
2023-01-28T06:26:00.961Z,9.43
2023-01-28T06:27:10.207Z,12.68
2023-01-28T06:28:13.936Z,14.50
2023-01-28T06:29:16.438Z,14.43
2023-01-28T06:30:20.140Z,12.75
2023-01-28T06:31:22.646Z,9.93
2023-01-28T06:32:33.242Z,8.13
2023-01-28T06:33:35.771Z,11.00
2023-01-28T06:34:39.294Z,7.97
2023-01-28T06:35:41.923Z,8.57
2023-01-28T06:36:46.703Z,14.40
2023-01-28T06:37:56.186Z,10.05
2023-01-28T06:39:00.528Z,11.30
2023-01-28T06:40:10.151Z,13.40
2023-01-28T06:41:13.569Z,10.20
2023-01-28T06:42:16.116Z,9.25
2023-01-28T06:43:26.177Z,13.20
2023-01-28T06:44:36.200Z,14.90
2023-01-28T06:45:38.771Z,12.38
2023-01-28T06:46:42.232Z,14.52
2023-01-28T06:47:44.761Z,14.20
2023-01-28T06:48:48.163Z,15.60
2023-01-28T06:49:57.189Z,15.55
2023-01-28T06:51:00.611Z,11.45
2023-01-28T06:52:25.156Z,13.20
2023-01-28T06:53:27.634Z,12.32
2023-01-28T06:54:37.177Z,10.20
2023-01-28T06:55:47.186Z,10.48
2023-01-28T06:56:49.775Z,7.78
2023-01-28T06:57:53.292Z,7.55
2023-01-28T06:58:55.776Z,6.90
2023-01-28T06:59:59.194Z,7.82
2023-01-28T07:01:08.174Z,9.07
2023-01-28T07:02:12.860Z,7.93
2023-01-28T07:03:15.416Z,7.32
2023-01-28T07:04:18.997Z,7.55
2023-01-28T07:05:28.165Z,8.32
2023-01-28T07:06:38.224Z,8.75
2023-01-28T07:07:42.360Z,7.03
2023-01-28T07:08:45.846Z,9.80
2023-01-28T07:09:48.313Z,7.93
2023-01-28T07:10:51.854Z,7.32
2023-01-28T07:12:01.151Z,8.63
2023-01-28T07:13:07.675Z,7.63
2023-01-28T07:14:11.078Z,5.82
2023-01-28T07:15:15.231Z,7.15
2023-01-28T07:16:18.809Z,8.57
2023-01-28T07:17:28.272Z,8.13
2023-01-28T07:18:31.846Z,8.02
2023-01-28T07:19:34.437Z,9.52
2023-01-28T07:20:38.022Z,8.52
2023-01-28T07:21:47.260Z,10.00
2023-01-28T07:22:59.176Z,10.95
2023-01-28T07:24:05.299Z,13.55
2023-01-28T07:25:08.157Z,10.93
2023-01-28T07:26:11.626Z,12.35
2023-01-28T07:27:21.200Z,12.85
2023-01-28T07:28:24.631Z,14.10
2023-01-28T07:29:33.181Z,10.13
2023-01-28T07:30:36.637Z,11.32
2023-01-28T07:31:39.217Z,10.27
2023-01-28T07:32:49.204Z,11.77
2023-01-28T07:33:52.678Z,11.02
2023-01-28T07:34:55.328Z,11.93
2023-01-28T07:35:58.817Z,12.65
2023-01-28T07:37:01.380Z,10.68
2023-01-28T07:38:12.181Z,8.85
2023-01-28T07:39:14.730Z,7.90
2023-01-28T07:40:25.182Z,7.68
2023-01-28T07:41:28.224Z,9.93
2023-01-28T07:42:31.807Z,8.80
2023-01-28T07:43:35.280Z,7.43
2023-01-28T07:44:45.190Z,10.40
2023-01-28T07:45:48.767Z,8.45
2023-01-28T07:46:51.473Z,9.82
2023-01-28T07:47:58.401Z,10.75
2023-01-28T07:49:07.237Z,9.50
2023-01-28T07:50:11.263Z,9.80
2023-01-28T07:51:14.748Z,10.95
2023-01-28T07:52:37.155Z,15.88
2023-01-28T07:53:41.915Z,14.25
2023-01-28T07:54:51.191Z,12.20
2023-01-28T07:55:54.628Z,14.90
2023-01-28T07:57:03.221Z,14.57
2023-01-28T07:58:07.730Z,17.10
2023-01-28T07:59:10.212Z,12.30
2023-01-28T08:00:14.384Z,13.23
2023-01-28T08:01:18.374Z,17.10
2023-01-28T08:02:28.220Z,17.88
2023-01-28T08:03:31.759Z,24.55
2023-01-28T08:04:34.750Z,23.95
2023-01-28T08:05:43.421Z,24.50
2023-01-28T08:06:46.379Z,23.83
2023-01-28T08:07:57.231Z,24.25
2023-01-28T08:09:01.970Z,23.30
2023-01-28T08:10:04.826Z,15.38
2023-01-28T08:11:09.607Z,19.08
2023-01-28T08:12:12.130Z,13.85
2023-01-28T08:13:23.214Z,16.98
2023-01-28T08:14:25.782Z,15.38
2023-01-28T08:15:29.921Z,11.13
2023-01-28T08:16:32.427Z,9.32
2023-01-28T08:17:35.941Z,8.35
2023-01-28T08:18:45.220Z,9.13
2023-01-28T08:19:48.626Z,11.60
2023-01-28T08:20:56.635Z,13.93
2023-01-28T08:21:59.131Z,13.07
2023-01-28T08:23:09.549Z,14.98
2023-01-28T08:24:20.226Z,15.77
2023-01-28T08:25:23.721Z,14.13
2023-01-28T08:26:33.206Z,13.60
2023-01-28T08:27:36.670Z,16.73
2023-01-28T08:28:39.231Z,13.80
2023-01-28T08:29:43.750Z,17.17
2023-01-28T08:30:46.996Z,14.57
2023-01-28T08:31:57.225Z,12.68
2023-01-28T08:33:00.026Z,16.77
2023-01-28T08:34:10.234Z,10.40
2023-01-28T08:35:12.868Z,10.25
2023-01-28T08:36:16.786Z,12.68
2023-01-28T08:37:19.287Z,13.82
2023-01-28T08:38:22.897Z,11.77
2023-01-28T08:39:33.198Z,9.45
2023-01-28T08:40:37.062Z,12.07
2023-01-28T08:41:46.204Z,12.40
2023-01-28T08:42:50.130Z,15.57
2023-01-28T08:43:52.619Z,16.13
2023-01-28T08:44:56.051Z,18.10
2023-01-28T08:46:05.302Z,19.95
2023-01-28T08:47:08.767Z,19.35
2023-01-28T08:48:12.850Z,21.25
2023-01-28T08:49:16.606Z,18.42
2023-01-28T08:50:20.002Z,23.63
2023-01-28T08:51:30.347Z,24.38
2023-01-28T08:52:53.194Z,24.50
2023-01-28T08:53:56.576Z,21.88
2023-01-28T08:55:01.313Z,20.63
2023-01-28T08:56:03.813Z,17.33
2023-01-28T08:57:14.159Z,20.25
2023-01-28T08:58:17.831Z,17.08
2023-01-28T08:59:28.203Z,15.25
2023-01-28T09:00:30.662Z,16.58
2023-01-28T09:01:34.321Z,13.07
2023-01-28T09:02:36.881Z,12.57
2023-01-28T09:03:47.213Z,11.02
2023-01-28T09:04:49.685Z,9.98
2023-01-28T09:05:53.113Z,10.98
2023-01-28T09:06:55.690Z,14.60
2023-01-28T09:07:59.127Z,12.15
2023-01-28T09:09:08.172Z,11.60
2023-01-28T09:10:14.127Z,10.55
2023-01-28T09:11:17.863Z,10.18
2023-01-28T09:12:20.386Z,8.20
2023-01-28T09:13:30.230Z,7.28
2023-01-28T09:14:32.730Z,8.20
2023-01-28T09:15:36.200Z,10.13
2023-01-28T09:16:38.683Z,7.93
2023-01-28T09:17:42.349Z,11.90
2023-01-28T09:18:51.258Z,8.90
2023-01-28T09:19:54.740Z,11.93
2023-01-28T09:20:57.247Z,7.38
2023-01-28T09:22:00.682Z,8.40
2023-01-28T09:23:03.486Z,9.50
2023-01-28T09:24:13.242Z,5.88
2023-01-28T09:25:17.172Z,8.25
2023-01-28T09:26:21.662Z,7.32
2023-01-28T09:27:24.163Z,12.05
2023-01-28T09:28:34.183Z,8.98
2023-01-28T09:29:37.950Z,5.82
2023-01-28T09:30:41.515Z,9.38
2023-01-28T09:31:44.068Z,10.60
2023-01-28T09:32:54.195Z,18.95
2023-01-28T09:34:04.187Z,11.07
2023-01-28T09:35:08.021Z,16.92
2023-01-28T09:36:11.953Z,16.88
2023-01-28T09:37:15.421Z,9.48
2023-01-28T09:38:25.203Z,10.02
2023-01-28T09:39:29.501Z,11.43
2023-01-28T09:40:36.472Z,9.30
2023-01-28T09:41:46.395Z,14.02
2023-01-28T09:42:58.102Z,14.57
2023-01-28T09:44:13.242Z,11.95
2023-01-28T09:45:17.567Z,11.43
2023-01-28T09:46:21.067Z,14.93
2023-01-28T09:47:24.923Z,15.30
2023-01-28T09:48:32.938Z,18.13
2023-01-28T09:49:45.232Z,15.57
2023-01-28T09:50:50.583Z,15.63
2023-01-28T09:51:55.552Z,11.00
2023-01-28T09:53:20.181Z,10.68
2023-01-28T09:54:29.212Z,11.15
2023-01-28T09:55:41.184Z,18.20
2023-01-28T09:56:46.784Z,8.30
2023-01-28T09:57:52.563Z,9.45
2023-01-28T09:58:55.961Z,18.35
2023-01-28T10:00:06.270Z,11.07
2023-01-28T10:01:19.169Z,9.00
2023-01-28T10:02:28.246Z,12.95
2023-01-28T10:03:36.774Z,16.23
2023-01-28T10:04:44.844Z,15.75
2023-01-28T10:06:00.218Z,16.60
2023-01-28T10:07:09.999Z,16.38
2023-01-28T10:08:20.712Z,13.93
2023-01-28T10:09:29.978Z,15.13
2023-01-28T10:10:42.202Z,8.55
2023-01-28T10:12:00.195Z,8.68
2023-01-28T10:13:09.628Z,12.20
2023-01-28T10:14:16.695Z,12.95
2023-01-28T10:15:37.940Z,9.35
2023-01-28T10:16:50.211Z,9.27
2023-01-28T10:18:07.211Z,10.55
2023-01-28T10:19:23.244Z,12.18
2023-01-28T10:20:37.199Z,14.25
2023-01-28T10:21:43.403Z,12.45
2023-01-28T10:22:47.853Z,11.45
2023-01-28T10:24:05.202Z,9.27
2023-01-28T10:25:15.919Z,8.88
2023-01-28T10:26:22.978Z,10.68
2023-01-28T10:27:37.237Z,8.02
2023-01-28T10:28:40.894Z,8.60
2023-01-28T10:29:46.538Z,13.82
2023-01-28T10:30:49.593Z,16.52
2023-01-28T10:32:01.267Z,18.85
2023-01-28T10:33:05.124Z,13.65
2023-01-28T10:34:08.703Z,16.30
2023-01-28T10:35:11.242Z,18.98
2023-01-28T10:36:15.219Z,23.80
2023-01-28T10:37:24.247Z,17.52
2023-01-28T10:38:28.876Z,24.42
2023-01-28T10:39:32.479Z,23.52
2023-01-28T10:40:35.347Z,38.13
2023-01-28T10:41:51.870Z,42.10
2023-01-28T10:43:08.249Z,44.72
2023-01-28T10:44:16.014Z,34.95
2023-01-28T10:45:19.827Z,37.08
2023-01-28T10:46:25.013Z,29.02
2023-01-28T10:47:31.017Z,28.27
2023-01-28T10:48:44.250Z,19.40
2023-01-28T10:49:48.829Z,17.63
2023-01-28T10:50:52.792Z,19.10
2023-01-28T10:51:56.209Z,13.63
2023-01-28T10:53:20.205Z,19.83
2023-01-28T10:54:30.281Z,14.85
2023-01-28T10:55:36.324Z,24.50
2023-01-28T10:56:38.794Z,19.33
2023-01-28T10:57:44.490Z,19.90
2023-01-28T10:59:00.944Z,18.58
2023-01-28T11:00:31.184Z,18.90
2023-01-28T11:01:42.694Z,17.25
2023-01-28T11:02:50.037Z,14.90
2023-01-28T11:03:56.927Z,18.73
2023-01-28T11:05:11.229Z,15.65
2023-01-28T11:06:25.267Z,19.20
2023-01-28T11:07:27.688Z,17.42
2023-01-28T11:08:31.670Z,20.48
2023-01-28T11:09:35.209Z,19.88
2023-01-28T11:10:47.240Z,18.13
2023-01-28T11:11:49.792Z,18.48
2023-01-28T11:12:56.907Z,19.48
2023-01-28T11:14:01.586Z,18.08
2023-01-28T11:15:05.276Z,20.90
2023-01-28T11:16:25.169Z,19.73
2023-01-28T11:18:03.197Z,21.48
2023-01-28T11:19:07.048Z,21.48
2023-01-28T11:20:14.404Z,20.08
2023-01-28T11:21:25.186Z,18.85
2023-01-28T11:22:33.713Z,15.07
2023-01-28T11:23:39.256Z,19.52
2023-01-28T11:24:44.379Z,16.10
2023-01-28T11:25:46.851Z,17.88
2023-01-28T11:26:58.204Z,17.08
2023-01-28T11:28:02.597Z,26.15
2023-01-28T11:29:07.960Z,18.67
2023-01-28T11:30:21.999Z,15.15
2023-01-28T11:31:26.126Z,18.17
2023-01-28T11:32:35.165Z,17.35
2023-01-28T11:33:46.149Z,18.00
2023-01-28T11:34:52.802Z,16.15
2023-01-28T11:35:56.634Z,19.63
2023-01-28T11:37:12.243Z,16.50
2023-01-28T11:38:19.554Z,15.73
2023-01-28T11:39:29.234Z,17.50
2023-01-28T11:40:32.672Z,18.67
2023-01-28T11:41:36.557Z,19.13
2023-01-28T11:42:39.980Z,22.73
2023-01-28T11:43:42.566Z,20.20
2023-01-28T11:44:54.238Z,17.00
2023-01-28T11:46:02.652Z,20.80
2023-01-28T11:47:17.946Z,19.98
2023-01-28T11:48:26.409Z,17.40
2023-01-28T11:49:33.346Z,18.30
2023-01-28T11:50:47.206Z,18.77
2023-01-28T11:51:55.373Z,19.08
2023-01-28T11:53:25.407Z,21.23
2023-01-28T11:54:40.247Z,10.00
2023-01-28T11:55:46.301Z,12.43
2023-01-28T11:56:56.928Z,28.13
2023-01-28T11:58:06.252Z,17.65
2023-01-28T11:59:22.662Z,9.75
2023-01-28T12:00:47.207Z,10.57
2023-01-28T12:01:52.781Z,8.82
2023-01-28T12:03:00.546Z,13.13
2023-01-28T12:04:17.622Z,10.80
2023-01-28T12:05:42.206Z,8.50
2023-01-28T12:06:51.316Z,9.15
2023-01-28T12:07:58.550Z,9.88
2023-01-28T12:09:09.304Z,8.35
2023-01-28T12:10:19.544Z,10.65
2023-01-28T12:11:54.657Z,9.57
2023-01-28T12:13:05.964Z,13.57
2023-01-28T12:14:13.972Z,11.63
2023-01-28T12:15:34.341Z,7.10
2023-01-28T12:16:45.205Z,27.85
2023-01-28T12:18:03.177Z,62.25
2023-01-28T12:19:27.272Z,274.13
2023-01-28T12:20:32.994Z,173.70
2023-01-28T12:21:47.269Z,82.15
2023-01-28T12:23:05.748Z,103.85
2023-01-28T12:24:16.320Z,126.15
2023-01-28T12:25:29.907Z,17.00
2023-01-28T12:26:36.509Z,20.77
2023-01-28T12:27:49.216Z,85.50
2023-01-28T12:29:05.214Z,41.60
2023-01-28T12:30:17.110Z,216.40
2023-01-28T12:31:33.299Z,206.38
2023-01-28T12:32:51.252Z,114.88
2023-01-28T12:34:04.123Z,174.95
2023-01-28T12:35:21.061Z,144.23
2023-01-28T12:36:29.567Z,142.70
2023-01-28T12:37:38.783Z,138.63
2023-01-28T12:38:53.248Z,178.38
2023-01-28T12:40:05.854Z,234.55
2023-01-28T12:41:12.449Z,100.63
2023-01-28T12:42:20.357Z,61.47
2023-01-28T12:43:27.139Z,50.97
2023-01-28T12:44:40.215Z,71.00
2023-01-28T12:45:45.858Z,52.72
2023-01-28T12:46:52.302Z,31.42
2023-01-28T12:47:58.751Z,22.45
2023-01-28T12:49:05.412Z,31.55
2023-01-28T12:50:21.269Z,31.05
2023-01-28T12:51:26.934Z,15.80
2023-01-28T12:52:31.409Z,25.08
2023-01-28T12:53:44.414Z,36.22
2023-01-28T12:54:54.468Z,70.13
2023-01-28T12:56:07.208Z,14.70
2023-01-28T12:57:11.072Z,7.70
2023-01-28T12:58:16.911Z,8.13
2023-01-28T12:59:22.161Z,6.72
2023-01-28T13:00:35.274Z,6.63
2023-01-28T13:01:40.746Z,7.15
2023-01-28T13:02:46.192Z,5.70
2023-01-28T13:03:52.626Z,5.72
2023-01-28T13:04:59.984Z,11.73
2023-01-28T13:06:12.213Z,5.60
2023-01-28T13:07:16.340Z,3.42
2023-01-28T13:08:21.704Z,4.53
2023-01-28T13:09:27.230Z,5.30
2023-01-28T13:10:31.050Z,5.38
2023-01-28T13:11:43.233Z,5.13
2023-01-28T13:12:47.679Z,5.80
2023-01-28T13:13:50.441Z,16.17
2023-01-28T13:14:54.388Z,8.80
2023-01-28T13:16:03.280Z,12.45
2023-01-28T13:17:19.278Z,7.28
2023-01-28T13:18:45.303Z,8.27
2023-01-28T13:19:49.104Z,8.60
2023-01-28T13:20:55.697Z,7.07
2023-01-28T13:21:59.347Z,8.20
2023-01-28T13:23:09.269Z,9.77
2023-01-28T13:24:26.156Z,7.53
2023-01-28T13:25:29.042Z,5.53
2023-01-28T13:26:39.359Z,8.65
2023-01-28T13:27:42.814Z,7.47
2023-01-28T13:28:52.385Z,14.85
2023-01-28T13:30:24.081Z,5.80
2023-01-28T13:31:37.238Z,8.32
2023-01-28T13:32:40.771Z,12.63
2023-01-28T13:33:50.249Z,11.48
2023-01-28T13:35:07.247Z,13.85
2023-01-28T13:36:26.621Z,12.23
2023-01-28T13:37:32.986Z,8.30
2023-01-28T13:38:36.508Z,16.73
2023-01-28T13:39:46.236Z,23.40
2023-01-28T13:40:56.300Z,16.25
2023-01-28T13:42:10.288Z,10.65
2023-01-28T13:43:28.805Z,13.20
2023-01-28T13:44:40.233Z,7.75
2023-01-28T13:45:43.719Z,3.88
2023-01-28T13:46:46.444Z,4.70
2023-01-28T13:47:51.989Z,5.30
2023-01-28T13:48:55.843Z,6.95
2023-01-28T13:50:09.265Z,8.07
2023-01-28T13:51:16.433Z,4.47
2023-01-28T13:52:29.147Z,9.48
2023-01-28T13:53:44.483Z,32.10
2023-01-28T13:55:03.242Z,44.67
2023-01-28T13:56:07.704Z,28.25
2023-01-28T13:57:26.004Z,9.60
2023-01-28T13:58:56.170Z,4.70
2023-01-28T14:00:10.231Z,7.90
2023-01-28T14:01:38.346Z,10.23
2023-01-28T14:03:05.447Z,8.95
2023-01-28T14:04:27.754Z,9.00
2023-01-28T14:05:47.306Z,9.75
2023-01-28T14:07:02.328Z,43.75
2023-01-28T14:08:20.049Z,94.93
2023-01-28T14:09:33.657Z,62.05
2023-01-28T14:10:39.753Z,78.25
2023-01-28T14:12:08.255Z,93.80
2023-01-28T14:13:31.290Z,75.57
2023-01-28T14:14:55.279Z,41.05
2023-01-28T14:16:10.308Z,11.07
2023-01-28T14:17:18.271Z,11.52
2023-01-28T14:18:27.254Z,12.93
2023-01-28T14:19:33.290Z,19.95
2023-01-28T14:20:48.245Z,11.90
2023-01-28T14:21:51.664Z,6.80
2023-01-28T14:22:58.053Z,6.25
2023-01-28T14:24:01.931Z,6.13
2023-01-28T14:25:11.263Z,8.65
2023-01-28T14:26:21.455Z,6.07
2023-01-28T14:27:31.236Z,6.15
2023-01-28T14:28:46.413Z,8.07
2023-01-28T14:29:56.099Z,9.30
2023-01-28T14:31:00.927Z,7.50
2023-01-28T14:32:06.695Z,6.57
2023-01-28T14:33:18.311Z,9.38
2023-01-28T14:34:25.453Z,8.05
2023-01-28T14:35:30.647Z,6.22
2023-01-28T14:36:38.001Z,7.68
2023-01-28T14:37:42.163Z,6.88
2023-01-28T14:38:52.266Z,7.25
2023-01-28T14:39:58.153Z,7.47
2023-01-28T14:41:01.704Z,4.82
2023-01-28T14:42:05.317Z,10.40
2023-01-28T14:43:09.311Z,5.47
2023-01-28T14:44:21.263Z,7.88
2023-01-28T14:45:31.212Z,7.28
2023-01-28T14:46:38.439Z,10.60
2023-01-28T14:47:57.267Z,11.85
2023-01-28T14:49:08.061Z,14.48
2023-01-28T14:50:27.809Z,16.83
2023-01-28T14:51:59.869Z,15.02